Time;durP1;ratioP1;P1;durP2;ratioP2;P2;SDS_P1;SDS_P2;PMS_P1;PMS_P2;Temp;Humidity;BMP_temperature;BMP_pressure;BME280_temperature;BME280_humidity;BME280_pressure;Samples;Min_cycle;Max_cycle;Signal;HPM_P1;HPM_P2
2023/09/16 00:01:03;;;;;;;10.40;3.63;;;;;;;22.25;69.12;98423.09;5093635;28;20054;-45
2023/09/16 00:03:29;;;;;;;10.18;3.75;;;;;;;22.26;68.67;98422.03;5093289;28;20024;-45
2023/09/16 00:05:56;;;;;;;109.43;50.05;;;;;;;22.23;69.31;98406.53;5093239;28;20042;-45
2023/09/16 00:08:22;;;;;;;10.90;5.50;;;;;;;22.36;69.29;98387.16;5093155;28;20026;-45
2023/09/16 00:10:48;;;;;;;49.25;10.77;;;;;;;22.61;69.20;98378.03;5093106;28;20028;-45
2023/09/16 00:13:14;;;;;;;18.63;6.70;;;;;;;22.79;68.55;98400.53;5093089;28;20016;-45
2023/09/16 00:15:40;;;;;;;69.28;15.75;;;;;;;22.86;68.66;98394.88;5093002;28;20024;-45
2023/09/16 00:18:05;;;;;;;31.25;9.18;;;;;;;23.23;67.89;98395.97;5093013;28;20024;-45
2023/09/16 00:20:31;;;;;;;11.35;6.43;;;;;;;23.49;67.40;98404.41;5092758;28;20048;-45
2023/09/16 00:22:57;;;;;;;30.95;6.55;;;;;;;23.50;67.39;98395.28;5093003;28;20477;-45
2023/09/16 00:25:23;;;;;;;16.02;5.88;;;;;;;23.43;67.75;98394.88;5092794;28;20504;-45
2023/09/16 00:27:48;;;;;;;6.40;3.70;;;;;;;23.21;68.50;98382.09;5093196;28;20024;-45
2023/09/16 00:30:14;;;;;;;10.65;4.22;;;;;;;22.81;69.65;98389.56;5092897;28;20162;-44
2023/09/16 00:32:40;;;;;;;4.32;3.40;;;;;;;22.45;70.92;98390.78;5092806;28;20024;-45
2023/09/16 00:35:08;;;;;;;11.23;4.50;;;;;;;22.08;71.93;98391.44;5092722;28;20039;-45
2023/09/16 00:37:33;;;;;;;18.30;4.95;;;;;;;21.80;73.61;98390.38;5092736;28;20016;-45
2023/09/16 00:39:59;;;;;;;12.90;4.10;;;;;;;21.73;73.81;98396.84;5092729;28;20031;-45
2023/09/16 00:42:24;;;;;;;10.00;4.00;;;;;;;21.78;73.81;98400.56;5092700;28;20497;-45
2023/09/16 00:44:50;;;;;;;36.75;8.88;;;;;;;22.07;74.67;98395.19;5091343;28;20596;-45
2023/09/16 00:47:16;;;;;;;50.72;8.45;;;;;;;22.69;73.29;98406.03;5092802;28;20022;-45
2023/09/16 00:49:43;;;;;;;84.38;12.18;;;;;;;23.12;72.73;98387.31;5092437;28;20501;-45
2023/09/16 00:52:10;;;;;;;13.27;4.32;;;;;;;23.40;70.68;98393.59;5092751;28;20020;-45
2023/09/16 00:54:36;;;;;;;27.40;5.78;;;;;;;23.38;69.35;98382.38;5092583;28;20028;-45
2023/09/16 00:57:03;;;;;;;25.23;5.10;;;;;;;23.39;68.98;98386.63;5092365;28;20077;-45
2023/09/16 00:59:32;;;;;;;49.88;8.52;;;;;;;23.31;68.26;98389.97;5092343;28;20104;-45
2023/09/16 01:01:59;;;;;;;10.23;4.10;;;;;;;23.15;67.85;98380.56;5092547;28;20101;-45
2023/09/16 01:04:26;;;;;;;18.83;5.38;;;;;;;23.30;68.48;98372.28;5092309;28;20028;-45
2023/09/16 01:06:52;;;;;;;20.77;6.05;;;;;;;23.31;67.79;98363.19;5092182;28;20030;-45
2023/09/16 01:09:20;;;;;;;47.20;9.82;;;;;;;23.18;68.07;98354.03;5092226;28;20028;-45
2023/09/16 01:11:46;;;;;;;10.65;3.78;;;;;;;22.97;68.41;98352.69;5092044;28;20076;-45
2023/09/16 01:14:12;;;;;;;6.20;3.70;;;;;;;22.73;68.73;98357.00;5092038;28;20454;-45
2023/09/16 01:17:15;;;;;;;22.05;5.53;;;;;;;22.55;69.83;98355.09;5092314;28;20108;-45
2023/09/16 01:19:59;;;;;;;15.43;5.22;;;;;;;22.64;69.58;98364.09;5081356;28;20464;-45
2023/09/16 01:22:25;;;;;;;46.55;8.13;;;;;;;22.73;68.95;98362.34;5092019;28;20047;-45
2023/09/16 01:24:55;;;;;;;32.58;7.00;;;;;;;22.85;68.77;98350.44;5091964;28;20116;-45
2023/09/16 01:27:21;;;;;;;33.83;14.35;;;;;;;23.03;68.84;98354.22;5091901;28;20433;-45
2023/09/16 01:29:48;;;;;;;8.65;4.00;;;;;;;23.09;67.39;98353.84;5091883;28;20024;-45
2023/09/16 01:32:17;;;;;;;7.38;3.90;;;;;;;22.82;67.69;98353.69;5074069;28;20127;-45
2023/09/16 01:34:50;;;;;;;6.93;4.28;;;;;;;22.58;68.31;98353.72;5091752;28;20024;-45
2023/09/16 01:37:18;;;;;;;6.38;3.55;;;;;;;22.27;68.99;98346.88;5090547;28;20097;-45
2023/09/16 01:40:10;;;;;;;32.08;7.72;;;;;;;22.13;70.49;98336.06;5090430;28;20020;-45
2023/09/16 01:42:36;;;;;;;6.22;4.60;;;;;;;22.26;69.37;98331.16;5091802;28;20127;-45
2023/09/16 01:45:02;;;;;;;12.30;4.47;;;;;;;22.16;69.22;98341.94;5091717;28;20109;-45
2023/09/16 01:47:28;;;;;;;9.27;3.92;;;;;;;22.01;69.79;98337.53;5091950;28;20039;-45
2023/09/16 01:49:54;;;;;;;20.55;3.85;;;;;;;21.91;70.16;98341.91;5091758;28;20025;-45
2023/09/16 01:52:20;;;;;;;90.75;37.10;;;;;;;21.84;71.18;98336.09;5091734;28;20107;-45
2023/09/16 01:54:45;;;;;;;8.18;5.20;;;;;;;21.90;70.63;98329.63;5091576;28;20023;-45
2023/09/16 01:57:11;;;;;;;33.47;6.15;;;;;;;22.04;71.62;98318.28;5091657;28;20032;-45
2023/09/16 01:59:37;;;;;;;13.32;3.97;;;;;;;22.45;70.10;98315.91;5090275;28;20422;-45
2023/09/16 02:02:03;;;;;;;59.20;10.25;;;;;;;22.61;69.55;98302.34;5090266;28;20036;-45
2023/09/16 02:04:28;;;;;;;8.05;3.72;;;;;;;22.57;69.05;98312.81;5091568;28;20398;-45
2023/09/16 02:06:54;;;;;;;22.45;5.10;;;;;;;22.50;69.65;98304.38;5091483;28;20024;-45
2023/09/16 02:09:20;;;;;;;18.83;5.45;;;;;;;22.53;69.18;98314.47;5091511;28;20021;-45
2023/09/16 02:11:46;;;;;;;95.95;14.45;;;;;;;22.67;69.75;98319.91;5090129;28;20020;-45
2023/09/16 02:14:14;;;;;;;20.55;6.05;;;;;;;23.03;69.09;98312.19;5093559;28;20086;-45
2023/09/16 02:16:40;;;;;;;21.38;4.30;;;;;;;23.50;68.01;98320.28;5095405;28;20085;-45
2023/09/16 02:19:06;;;;;;;19.90;5.82;;;;;;;23.91;66.40;98315.03;5095108;28;20040;-45
2023/09/16 02:21:32;;;;;;;45.00;7.43;;;;;;;24.13;65.17;98317.00;5095376;28;20616;-45
2023/09/16 02:23:58;;;;;;;87.03;11.93;;;;;;;23.97;64.71;98321.09;5095341;28;20396;-45
2023/09/16 02:26:24;;;;;;;48.35;8.10;;;;;;;23.85;65.38;98316.22;5093873;28;20035;-45
2023/09/16 02:28:50;;;;;;;15.20;4.57;;;;;;;23.90;65.57;98324.16;5095213;28;20490;-46
2023/09/16 02:31:16;;;;;;;58.53;9.40;;;;;;;24.06;65.96;98324.66;5094091;28;20024;-45
2023/09/16 02:33:41;;;;;;;22.40;6.13;;;;;;;24.02;66.52;98326.34;5095041;28;20028;-45
2023/09/16 02:36:07;;;;;;;130.20;26.15;;;;;;;23.75;68.55;98321.72;5095079;28;20426;-45
2023/09/16 02:38:34;;;;;;;24.15;7.18;;;;;;;23.45;70.65;98315.81;5094933;28;20020;-45
2023/09/16 02:41:05;;;;;;;270.20;190.85;;;;;;;23.12;73.42;98323.06;5093629;28;20027;-44
2023/09/16 02:43:31;;;;;;;36.53;25.30;;;;;;;22.95;76.32;98326.22;5094885;28;20032;-45
2023/09/16 02:45:57;;;;;;;32.25;15.77;;;;;;;22.82;77.74;98324.25;5094888;28;20035;-45
2023/09/16 02:48:23;;;;;;;20.30;7.00;;;;;;;22.66;78.40;98326.38;5094792;28;20024;-45
2023/09/16 02:50:49;;;;;;;8.07;4.70;;;;;;;22.33;79.99;98321.69;5094773;28;20026;-44
2023/09/16 02:53:16;;;;;;;63.83;11.55;;;;;;;22.38;82.23;98320.03;5094668;28;20113;-45
2023/09/16 02:55:42;;;;;;;16.77;5.95;;;;;;;22.49;82.35;98319.59;5094605;28;20520;-45
2023/09/16 02:58:08;;;;;;;52.38;9.85;;;;;;;22.65;82.54;98328.22;5094680;28;20099;-45
2023/09/16 03:00:33;;;;;;;15.75;5.80;;;;;;;22.84;82.33;98316.72;5094520;28;20103;-45
2023/09/16 03:02:59;;;;;;;43.55;11.25;;;;;;;22.96;82.52;98310.94;5094591;28;20023;-45
2023/09/16 03:05:25;;;;;;;100.07;38.10;;;;;;;22.84;82.76;98293.47;5094743;28;20489;-45
2023/09/16 03:07:51;;;;;;;25.48;11.18;;;;;;;22.45;83.85;98286.50;5093165;28;20031;-45
2023/09/16 03:10:17;;;;;;;10.00;5.53;;;;;;;22.12;85.97;98274.88;5094416;28;20047;-45
2023/09/16 03:12:43;;;;;;;32.03;7.40;;;;;;;21.97;88.18;98281.19;5093161;28;20103;-44
2023/09/16 03:15:11;;;;;;;59.30;13.50;;;;;;;22.09;89.79;98273.56;5094262;28;20107;-44
2023/09/16 03:17:36;;;;;;;35.97;8.70;;;;;;;22.26;90.03;98259.75;5092999;28;20032;-45
2023/09/16 03:20:02;;;;;;;16.35;5.18;;;;;;;22.33;89.11;98267.41;5093950;28;20066;-45
2023/09/16 03:22:28;;;;;;;29.17;7.30;;;;;;;22.25;88.77;98273.41;5094188;28;20020;-45
2023/09/16 03:24:54;;;;;;;12.35;5.45;;;;;;;22.05;88.32;98280.53;5093013;28;20028;-45
2023/09/16 03:27:20;;;;;;;25.33;7.13;;;;;;;21.79;87.96;98273.91;5094101;28;20020;-45
2023/09/16 03:29:45;;;;;;;20.48;6.03;;;;;;;21.53;88.38;98274.16;5094008;28;20077;-45
2023/09/16 03:32:11;;;;;;;9.48;4.55;;;;;;;21.34;89.70;98274.06;5092700;28;20443;-45
2023/09/16 03:34:37;;;;;;;12.98;5.65;;;;;;;21.18;90.31;98273.38;5092511;28;20024;-44
2023/09/16 03:37:02;;;;;;;57.05;11.20;;;;;;;21.15;91.20;98273.97;5092635;28;20016;-45
2023/09/16 03:39:28;;;;;;;49.13;10.18;;;;;;;21.21;91.19;98293.38;5093897;28;20462;-45
2023/09/16 03:41:54;;;;;;;36.22;7.93;;;;;;;21.15;90.75;98292.63;5092435;28;20119;-44
2023/09/16 03:44:20;;;;;;;93.47;15.20;;;;;;;21.15;91.71;98288.09;5093768;28;20402;-45
2023/09/16 03:46:46;;;;;;;189.05;39.70;;;;;;;21.12;92.70;98290.50;5093725;28;20024;-45
2023/09/16 03:49:11;;;;;;;34.42;7.82;;;;;;;21.14;93.53;98285.69;5093671;28;20031;-44
2023/09/16 03:51:38;;;;;;;6.75;5.10;;;;;;;21.27;94.38;98306.41;5092399;28;20055;-45
2023/09/16 03:54:06;;;;;;;149.35;22.88;;;;;;;21.31;94.14;98310.13;5092189;28;20115;-44
2023/09/16 03:56:32;;;;;;;52.15;10.82;;;;;;;21.25;93.90;98311.25;5093411;28;20519;-44
2023/09/16 03:58:58;;;;;;;194.93;31.52;;;;;;;21.20;94.14;98311.25;5093493;28;20077;-44
2023/09/16 04:01:24;;;;;;;22.33;7.50;;;;;;;21.11;94.86;98302.28;5093464;28;20028;-43
2023/09/16 04:03:49;;;;;;;152.95;23.13;;;;;;;20.97;96.37;98302.09;5092073;28;20448;-43
2023/09/16 04:06:15;;;;;;;181.43;30.17;;;;;;;20.93;99.00;98299.19;5093315;28;20048;-44
2023/09/16 04:08:41;;;;;;;91.93;16.67;;;;;;;21.00;100.00;98308.75;5093272;28;20020;-44
2023/09/16 04:11:07;;;;;;;16.77;7.15;;;;;;;21.10;100.00;98309.47;5093178;28;20019;-43
2023/09/16 04:13:33;;;;;;;162.75;24.70;;;;;;;21.08;100.00;98303.63;5093157;28;20024;-43
2023/09/16 04:15:58;;;;;;;200.73;28.85;;;;;;;21.17;100.00;98311.03;5093060;28;20542;-43
2023/09/16 04:18:24;;;;;;;19.35;7.60;;;;;;;21.30;100.00;98311.19;5091784;28;20036;-43
2023/09/16 04:20:55;;;;;;;84.28;16.00;;;;;;;21.44;100.00;98299.91;5091581;28;20093;-43
2023/09/16 04:23:24;;;;;;;306.80;41.55;;;;;;;21.36;100.00;98301.25;5093306;28;20107;-43
2023/09/16 04:25:57;;;;;;;33.53;10.45;;;;;;;21.36;100.00;98298.59;5093201;28;20099;-44
2023/09/16 04:28:23;;;;;;;139.95;23.58;;;;;;;21.29;100.00;98298.94;5092968;28;20050;-44
2023/09/16 04:30:50;;;;;;;117.32;21.17;;;;;;;21.39;100.00;98298.03;5092851;28;20024;-44
2023/09/16 04:33:20;;;;;;;24.23;7.78;;;;;;;21.68;100.00;98290.03;5091540;28;20051;-45
2023/09/16 04:35:47;;;;;;;193.60;25.60;;;;;;;21.96;100.00;98300.19;5092439;28;20028;-45
2023/09/16 04:38:14;;;;;;;148.63;23.42;;;;;;;22.13;100.00;98306.66;5092915;28;20115;-45
2023/09/16 04:40:44;;;;;;;19.08;6.47;;;;;;;22.03;99.42;98322.00;5091370;28;20062;-45
2023/09/16 04:43:12;;;;;;;187.35;24.92;;;;;;;21.88;99.84;98329.09;5092731;28;20529;-45
2023/09/16 04:45:39;;;;;;;67.55;13.48;;;;;;;21.70;99.58;98337.84;5092554;28;20032;-45
2023/09/16 04:48:04;;;;;;;59.88;11.45;;;;;;;21.54;99.92;98334.50;5092581;28;20012;-45
2023/09/16 04:50:31;;;;;;;175.02;24.85;;;;;;;21.41;100.00;98313.75;5091204;28;20035;-45
2023/09/16 04:52:58;;;;;;;18.63;6.03;;;;;;;21.45;100.00;98309.47;5092780;28;20024;-45
2023/09/16 04:55:25;;;;;;;13.48;5.88;;;;;;;21.10;97.87;98300.66;5092298;28;20553;-45
2023/09/16 04:57:50;;;;;;;23.45;7.20;;;;;;;20.70;97.34;98291.88;5091258;28;20047;-45
2023/09/16 05:00:17;;;;;;;16.95;6.93;;;;;;;20.37;99.39;98291.50;5090991;28;20107;-44
2023/09/16 05:02:48;;;;;;;13.18;6.88;;;;;;;20.26;100.00;98304.06;5092360;28;20058;-45
2023/09/16 05:05:15;;;;;;;99.20;17.70;;;;;;;20.41;100.00;98308.53;5092325;28;20038;-44
2023/09/16 05:07:41;;;;;;;18.98;6.50;;;;;;;20.87;100.00;98316.31;5090994;28;20027;-44
2023/09/16 05:10:07;;;;;;;22.65;7.22;;;;;;;21.03;100.00;98324.22;5092174;28;20063;-44
2023/09/16 05:12:33;;;;;;;149.77;21.30;;;;;;;21.02;100.00;98339.41;5092232;28;20447;-44
2023/09/16 05:14:58;;;;;;;70.35;14.15;;;;;;;20.98;100.00;98343.72;5092038;28;20103;-44
2023/09/16 05:17:24;;;;;;;114.13;17.15;;;;;;;20.93;100.00;98338.41;5090743;28;20020;-44
2023/09/16 05:19:50;;;;;;;8.98;5.32;;;;;;;20.90;100.00;98337.06;5090394;28;20040;-45
2023/09/16 05:22:15;;;;;;;29.60;8.35;;;;;;;20.90;100.00;98344.28;5091833;28;20114;-44
2023/09/16 05:24:41;;;;;;;45.60;9.65;;;;;;;20.81;98.97;98348.63;5091920;28;20027;-44
2023/09/16 05:27:07;;;;;;;30.38;9.73;;;;;;;20.77;99.75;98351.03;5090539;28;20028;-45
2023/09/16 05:29:33;;;;;;;9.02;5.18;;;;;;;20.80;100.00;98341.69;5090673;28;20027;-44
2023/09/16 05:31:59;;;;;;;128.95;20.13;;;;;;;21.00;100.00;98356.78;5090600;28;20567;-45
2023/09/16 05:34:25;;;;;;;57.33;12.05;;;;;;;21.32;100.00;98361.63;5090471;28;20020;-45
2023/09/16 05:36:50;;;;;;;208.90;27.08;;;;;;;21.56;100.00;98353.72;5090517;28;20039;-44
2023/09/16 05:39:16;;;;;;;177.55;24.45;;;;;;;21.95;100.00;98352.81;5091871;28;20016;-45
2023/09/16 05:41:43;;;;;;;54.78;11.32;;;;;;;22.17;99.43;98343.50;5092094;28;20036;-45
2023/09/16 05:44:09;;;;;;;216.73;31.67;;;;;;;22.47;97.81;98339.69;5091680;28;20048;-44
2023/09/16 05:46:34;;;;;;;293.63;78.35;;;;;;;22.83;96.68;98342.69;5090508;28;20063;-45
2023/09/16 05:49:08;;;;;;;37.95;15.10;;;;;;;23.03;95.09;98332.81;5092436;28;20102;-44
2023/09/16 05:51:35;;;;;;;19.55;6.78;;;;;;;23.16;94.16;98342.00;5095994;28;20028;-45
2023/09/16 05:54:01;;;;;;;112.07;19.52;;;;;;;23.29;91.89;98347.41;5095856;28;20520;-45
2023/09/16 05:56:27;;;;;;;219.25;34.45;;;;;;;23.39;90.60;98346.44;5095856;28;20024;-45
2023/09/16 05:58:52;;;;;;;209.48;38.00;;;;;;;23.49;90.96;98366.91;5111578;28;20451;-45
2023/09/16 06:01:18;;;;;;;43.45;16.45;;;;;;;23.61;90.96;98348.50;5094458;28;20107;-45
2023/09/16 06:03:44;;;;;;;20.92;8.00;;;;;;;23.73;89.61;98358.75;5095710;28;20021;-45
2023/09/16 06:06:11;;;;;;;35.90;9.27;;;;;;;23.90;88.88;98363.56;5094625;28;20104;-45
2023/09/16 06:08:37;;;;;;;220.93;36.30;;;;;;;24.02;89.23;98358.50;5094555;28;20017;-45
2023/09/16 06:11:03;;;;;;;27.98;8.20;;;;;;;24.07;89.25;98360.31;5094148;28;20076;-45
2023/09/16 06:13:28;;;;;;;233.18;37.00;;;;;;;24.13;88.91;98370.63;5095455;28;20028;-45
2023/09/16 06:15:54;;;;;;;42.85;13.50;;;;;;;24.21;86.75;98363.00;5095304;28;20070;-45
2023/09/16 06:18:20;;;;;;;238.02;35.30;;;;;;;24.26;84.93;98373.63;5095343;28;20020;-45
2023/09/16 06:20:46;;;;;;;253.77;39.83;;;;;;;24.31;83.82;98365.50;5093831;28;20044;-45
2023/09/16 06:23:13;;;;;;;32.40;8.93;;;;;;;24.20;82.35;98364.09;5093960;28;20028;-45
2023/09/16 06:25:39;;;;;;;229.73;31.42;;;;;;;24.27;81.40;98359.91;5095258;28;20028;-45
2023/09/16 06:28:05;;;;;;;105.38;16.92;;;;;;;24.68;81.01;98363.69;5094017;28;20394;-45
2023/09/16 06:30:31;;;;;;;109.50;15.90;;;;;;;25.64;76.42;98367.94;5093792;28;20500;-45
2023/09/16 06:32:57;;;;;;;220.57;36.53;;;;;;;26.60;72.74;98371.06;5095121;28;20024;-45
2023/09/16 06:35:24;;;;;;;40.05;9.15;;;;;;;27.47;68.99;98373.81;5094941;28;20027;-45
2023/09/16 06:37:50;;;;;;;32.75;9.13;;;;;;;27.56;67.39;98375.69;5095052;28;20035;-45
2023/09/16 06:40:17;;;;;;;9.07;5.00;;;;;;;26.95;66.46;98386.47;5095169;28;20393;-45
2023/09/16 06:42:43;;;;;;;153.15;25.35;;;;;;;26.15;68.31;98384.66;5093833;28;20028;-45
2023/09/16 06:45:09;;;;;;;335.58;46.78;;;;;;;25.66;70.41;98387.25;5094737;28;20028;-45
2023/09/16 06:47:35;;;;;;;10.98;5.05;;;;;;;25.34;70.72;98396.34;5094747;28;20031;-45
2023/09/16 06:50:01;;;;;;;280.88;46.72;;;;;;;24.90;70.70;98401.31;5094716;28;20403;-45
2023/09/16 06:52:28;;;;;;;83.53;14.98;;;;;;;24.88;72.73;98405.41;5094641;28;20035;-45
2023/09/16 06:54:54;;;;;;;26.58;10.45;;;;;;;24.90;72.81;98419.31;5093321;28;20074;-45
2023/09/16 06:57:20;;;;;;;73.60;17.95;;;;;;;24.79;73.08;98421.44;5093314;28;20051;-45
2023/09/16 06:59:47;;;;;;;42.35;10.52;;;;;;;24.70;72.63;98415.16;5093064;28;20484;-45
2023/09/16 07:02:13;;;;;;;189.98;31.73;;;;;;;24.65;72.96;98412.56;5093133;28;20028;-45
2023/09/16 07:04:40;;;;;;;207.10;31.70;;;;;;;24.71;72.57;98416.78;5094768;28;20032;-45
2023/09/16 07:07:09;;;;;;;27.90;7.57;;;;;;;24.68;71.88;98428.09;5094347;28;20486;-45
2023/09/16 07:09:35;;;;;;;258.73;39.75;;;;;;;24.66;72.00;98439.13;5094334;28;20095;-45
2023/09/16 07:12:01;;;;;;;59.60;14.82;;;;;;;24.63;71.83;98450.47;5093099;28;20131;-45
2023/09/16 07:14:27;;;;;;;17.02;6.45;;;;;;;24.51;72.17;98445.59;5093125;28;20020;-45
2023/09/16 07:16:52;;;;;;;77.97;13.98;;;;;;;24.56;71.76;98442.00;5094343;28;20077;-45
2023/09/16 07:19:18;;;;;;;126.88;19.35;;;;;;;24.62;71.05;98440.81;5094020;28;20044;-45
2023/09/16 07:21:44;;;;;;;49.10;9.70;;;;;;;24.76;70.94;98442.69;5093167;28;20024;-45
2023/09/16 07:24:09;;;;;;;190.02;29.33;;;;;;;24.98;70.05;98442.75;5092815;28;20086;-45
2023/09/16 07:26:35;;;;;;;23.92;5.85;;;;;;;25.19;69.25;98436.94;5094158;28;20024;-45
2023/09/16 07:29:01;;;;;;;25.25;7.13;;;;;;;25.37;67.75;98437.91;5092810;28;20024;-45
2023/09/16 07:31:27;;;;;;;44.75;8.75;;;;;;;25.36;67.29;98434.44;5094020;28;20031;-45
2023/09/16 07:33:52;;;;;;;104.25;18.38;;;;;;;25.36;67.33;98439.03;5093944;28;20028;-45
2023/09/16 07:36:18;;;;;;;275.58;37.22;;;;;;;25.37;67.34;98454.03;5092842;28;20482;-45
2023/09/16 07:38:44;;;;;;;21.00;7.32;;;;;;;25.36;67.20;98457.84;5093854;28;20121;-45
2023/09/16 07:41:10;;;;;;;139.50;23.42;;;;;;;25.19;66.83;98458.44;5093758;28;20057;-45
2023/09/16 07:43:36;;;;;;;32.78;6.75;;;;;;;24.99;67.10;98459.66;5093726;28;20096;-45
2023/09/16 07:46:02;;;;;;;93.72;15.55;;;;;;;24.86;66.37;98469.34;5093665;28;20123;-45
2023/09/16 07:48:28;;;;;;;7.95;3.80;;;;;;;24.43;61.52;98464.25;5093719;28;20024;-45
2023/09/16 07:50:54;;;;;;;20.08;5.13;;;;;;;23.73;65.18;98472.06;5093661;28;20032;-44
2023/09/16 07:53:23;;;;;;;52.85;10.02;;;;;;;22.98;65.62;98474.69;5092265;28;20024;-45
2023/09/16 07:55:49;;;;;;;33.47;10.88;;;;;;;22.50;68.70;98470.19;5093486;28;20031;-45
2023/09/16 07:58:14;;;;;;;17.42;6.82;;;;;;;22.28;69.13;98473.34;5092498;28;20501;-45
2023/09/16 08:00:40;;;;;;;19.88;5.53;;;;;;;22.13;70.07;98472.38;5093464;28;20028;-45
2023/09/16 08:03:06;;;;;;;18.90;4.97;;;;;;;22.16;70.11;98471.00;5093428;28;20528;-45
2023/09/16 08:05:31;;;;;;;24.38;5.78;;;;;;;22.24;68.86;98469.66;5092125;28;20519;-45
2023/09/16 08:07:57;;;;;;;10.90;4.70;;;;;;;22.27;68.40;98469.84;5091952;28;20024;-45
2023/09/16 08:10:22;;;;;;;9.05;3.83;;;;;;;22.32;68.35;98469.81;5093164;28;20024;-45
2023/09/16 08:12:48;;;;;;;34.63;7.35;;;;;;;22.19;68.39;98459.75;5092578;28;20024;-45
2023/09/16 08:15:14;;;;;;;11.68;4.53;;;;;;;21.88;69.89;98469.91;5091689;28;20039;-45
2023/09/16 08:17:40;;;;;;;31.08;6.50;;;;;;;21.49;71.49;98460.84;5093405;28;20032;-45
2023/09/16 08:20:07;;;;;;;26.02;5.93;;;;;;;21.18;74.05;98468.22;5092802;28;20044;-45
2023/09/16 08:22:32;;;;;;;28.50;7.97;;;;;;;20.99;76.07;98476.03;5093065;28;20028;-45
2023/09/16 08:24:58;;;;;;;26.02;6.05;;;;;;;21.07;77.43;98472.81;5092997;28;20032;-45
2023/09/16 08:27:25;;;;;;;4.80;4.03;;;;;;;21.27;77.12;98479.91;5092939;28;20385;-45
2023/09/16 08:29:52;;;;;;;13.65;5.30;;;;;;;21.30;77.20;98471.34;5092880;28;20100;-45
2023/09/16 08:32:18;;;;;;;53.83;10.18;;;;;;;21.35;78.48;98483.88;5092816;28;20497;-45
2023/09/16 08:34:44;;;;;;;35.78;7.68;;;;;;;21.27;79.06;98487.91;5092741;28;20485;-45
2023/09/16 08:37:13;;;;;;;118.18;17.02;;;;;;;21.32;80.83;98484.41;5092968;28;20016;-44
2023/09/16 08:39:39;;;;;;;224.70;32.22;;;;;;;21.62;82.37;98491.47;5091398;28;20028;-44
2023/09/16 08:42:16;;;;;;;186.20;26.50;;;;;;;22.04;82.18;98489.31;5092569;28;20371;-45
2023/09/16 08:44:44;;;;;;;64.63;10.25;;;;;;;22.38;80.64;98494.63;5092680;28;20040;-45
2023/09/16 08:47:21;;;;;;;40.28;6.38;;;;;;;22.77;76.06;98495.56;5092516;28;20024;-45
2023/09/16 08:49:52;;;;;;;35.15;6.53;;;;;;;22.99;70.95;98509.22;5091542;28;20024;-45
2023/09/16 08:52:20;;;;;;;23.33;6.03;;;;;;;23.17;71.00;98523.75;5092531;28;20541;-45
2023/09/16 08:54:48;;;;;;;42.13;7.65;;;;;;;23.64;70.84;98510.53;5092423;28;20103;-45
2023/09/16 08:57:15;;;;;;;239.70;32.60;;;;;;;23.62;68.23;98512.72;5091164;28;20017;-45
2023/09/16 08:59:41;;;;;;;11.88;4.13;;;;;;;23.84;67.15;98501.41;5090986;28;20035;-45
2023/09/16 09:02:08;;;;;;;40.65;6.55;;;;;;;24.17;65.71;98498.75;5092306;28;20028;-45
2023/09/16 09:04:35;;;;;;;91.53;13.55;;;;;;;24.54;65.00;98494.38;5092287;28;20035;-45
2023/09/16 09:07:02;;;;;;;24.58;6.85;;;;;;;24.63;63.04;98489.91;5092193;28;20016;-45
2023/09/16 09:09:29;;;;;;;7.50;3.05;;;;;;;24.71;62.28;98498.06;5091231;28;20103;-45
2023/09/16 09:11:57;;;;;;;11.40;3.40;;;;;;;24.87;62.22;98500.44;5092388;28;20398;-45
2023/09/16 09:14:23;;;;;;;35.90;5.93;;;;;;;25.30;59.64;98500.91;5091969;28;20024;-45
2023/09/16 09:16:51;;;;;;;29.75;5.35;;;;;;;25.62;56.82;98491.09;5090768;28;20027;-45
2023/09/16 09:19:20;;;;;;;45.88;8.07;;;;;;;25.44;56.12;98481.28;5090452;28;20502;-45
2023/09/16 09:21:47;;;;;;;86.82;12.00;;;;;;;25.52;57.57;98475.19;5092010;28;20032;-45
2023/09/16 09:24:13;;;;;;;40.50;7.35;;;;;;;25.85;55.76;98480.34;5091297;28;20067;-45
2023/09/16 09:26:39;;;;;;;19.52;5.30;;;;;;;25.71;55.58;98480.38;5090924;28;20055;-45
2023/09/16 09:29:09;;;;;;;19.95;4.95;;;;;;;25.61;56.44;98465.28;5090597;28;20025;-45
2023/09/16 09:31:36;;;;;;;27.58;5.07;;;;;;;25.69;55.60;98471.84;5091866;28;20020;-45
2023/09/16 09:34:02;;;;;;;53.28;9.07;;;;;;;25.55;56.51;98469.19;5091698;28;20030;-45
2023/09/16 09:36:32;;;;;;;14.50;4.07;;;;;;;25.83;56.03;98464.50;5090575;28;20036;-45
2023/09/16 09:38:58;;;;;;;27.55;5.63;;;;;;;25.93;55.48;98468.09;5091698;28;20040;-45
2023/09/16 09:41:24;;;;;;;28.70;5.72;;;;;;;26.17;55.15;98465.06;5091747;28;20028;-45
2023/09/16 09:43:52;;;;;;;56.20;8.02;;;;;;;27.41;52.98;98468.63;5092030;28;20114;-46
2023/09/16 09:46:20;;;;;;;53.85;10.25;;;;;;;28.68;49.58;98477.13;5091664;28;20020;-46
2023/09/16 09:48:46;;;;;;;7.50;3.30;;;;;;;30.17;45.35;98474.09;5091709;28;20024;-46
2023/09/16 09:51:16;;;;;;;78.90;11.80;;;;;;;30.81;42.54;98467.28;5090381;28;20020;-46
2023/09/16 09:53:43;;;;;;;31.48;5.07;;;;;;;30.56;43.23;98469.19;5091806;28;20119;-45
2023/09/16 09:56:11;;;;;;;40.95;8.43;;;;;;;30.00;43.33;98468.84;5091537;28;20020;-45
2023/09/16 09:58:36;;;;;;;41.78;7.82;;;;;;;29.50;44.53;98477.88;5090472;28;20032;-45
2023/09/16 10:01:02;;;;;;;140.15;17.15;;;;;;;29.39;45.32;98464.75;5090224;28;20081;-46
2023/09/16 10:03:28;;;;;;;92.07;16.08;;;;;;;30.17;44.84;98467.88;5090211;28;20035;-46
2023/09/16 10:05:57;;;;;;;38.10;6.78;;;;;;;31.34;42.08;98467.31;5091501;28;20066;-46
2023/09/16 10:08:24;;;;;;;9.35;3.47;;;;;;;31.51;39.66;98466.28;5090226;28;20032;-46
2023/09/16 10:10:51;;;;;;;23.00;3.92;;;;;;;30.98;37.64;98468.19;5091733;28;20020;-46
2023/09/16 10:13:17;;;;;;;5.28;2.05;;;;;;;30.98;37.71;98460.84;5091518;28;20020;-46
2023/09/16 10:15:43;;;;;;;33.80;5.47;;;;;;;31.01;37.51;98472.94;5090127;28;20024;-46
2023/09/16 10:18:09;;;;;;;9.40;1.98;;;;;;;30.93;37.70;98471.09;5091462;28;20020;-46
2023/09/16 10:20:38;;;;;;;12.63;3.30;;;;;;;31.51;36.87;98474.41;5089978;28;20425;-46
2023/09/16 10:23:04;;;;;;;7.65;2.33;;;;;;;32.17;35.34;98466.88;5090076;28;20119;-46
2023/09/16 10:25:31;;;;;;;64.03;11.60;;;;;;;31.61;36.28;98467.69;5090109;28;20101;-46
2023/09/16 10:28:03;;;;;;;13.75;4.97;;;;;;;30.97;37.39;98472.00;5091333;28;20026;-46
2023/09/16 10:30:31;;;;;;;5.40;2.10;;;;;;;30.55;37.70;98461.41;5091484;28;20128;-46
2023/09/16 10:33:05;;;;;;;6.30;2.55;;;;;;;29.78;38.39;98472.72;5089968;28;20059;-46
2023/09/16 10:35:33;;;;;;;15.95;3.60;;;;;;;29.10;39.62;98465.59;5092452;28;20106;-45
2023/09/16 10:38:04;;;;;;;9.20;2.05;;;;;;;28.41;40.84;98472.13;5093702;28;20020;-46
2023/09/16 10:40:31;;;;;;;9.68;2.67;;;;;;;27.95;42.00;98471.78;5094015;28;20039;-46
2023/09/16 10:43:00;;;;;;;96.85;12.82;;;;;;;27.73;43.14;98472.75;5093733;28;20513;-46
2023/09/16 10:45:26;;;;;;;36.38;6.05;;;;;;;27.72;42.58;98470.34;5093599;28;20024;-46
2023/09/16 10:47:53;;;;;;;5.35;2.28;;;;;;;27.52;42.06;98464.50;5095121;28;20103;-46
2023/09/16 10:50:29;;;;;;;23.73;5.35;;;;;;;27.29;43.11;98471.94;5093465;28;20024;-45
2023/09/16 10:53:14;;;;;;;14.85;2.55;;;;;;;27.36;43.40;98461.47;5094789;28;20024;-46
2023/09/16 10:55:43;;;;;;;8.68;2.38;;;;;;;27.62;42.38;98456.06;5076461;28;20051;-46
2023/09/16 10:58:15;;;;;;;13.52;3.08;;;;;;;27.58;43.04;98463.22;5093593;28;20089;-46
2023/09/16 11:00:47;;;;;;;42.95;6.68;;;;;;;27.87;42.56;98464.50;5094574;28;20078;-46
2023/09/16 11:03:16;;;;;;;19.65;3.35;;;;;;;28.08;41.42;98465.38;5093215;28;20612;-46
2023/09/16 11:05:42;;;;;;;4.00;1.83;;;;;;;27.98;41.11;98467.66;5094356;28;20032;-45
2023/09/16 11:08:08;;;;;;;13.00;3.17;;;;;;;27.68;41.22;98472.88;5094456;28;20024;-45
2023/09/16 11:10:35;;;;;;;8.60;2.10;;;;;;;27.86;41.10;98466.34;5094326;28;20038;-45
2023/09/16 11:13:02;;;;;;;26.50;4.63;;;;;;;27.91;40.93;98464.63;5094281;28;20020;-45
2023/09/16 11:15:34;;;;;;;12.02;4.75;;;;;;;27.99;40.76;98456.53;5094255;28;20031;-45
2023/09/16 11:18:17;;;;;;;12.60;2.70;;;;;;;28.07;40.51;98453.03;5092965;28;20038;-46
2023/09/16 11:20:43;;;;;;;17.23;2.60;;;;;;;27.89;39.61;98454.97;5094130;28;20130;-45